sensor_id;sensor_type;location;lat;lon;timestamp;P1;durP1;ratioP1;P2;durP2;ratioP2
21927;SDS011;11128;51.096;17.190;2023-11-18T00:01:21;2.33;;;2.13;;
21927;SDS011;11128;51.096;17.190;2023-11-18T00:06:23;4.13;;;2.30;;
21927;SDS011;11128;51.096;17.190;2023-11-18T00:11:24;2.92;;;2.40;;
21927;SDS011;11128;51.096;17.190;2023-11-18T00:16:25;2.85;;;1.90;;
21927;SDS011;11128;51.096;17.190;2023-11-18T00:21:27;3.25;;;2.05;;
21927;SDS011;11128;51.096;17.190;2023-11-18T00:26:28;2.05;;;1.65;;
21927;SDS011;11128;51.096;17.190;2023-11-18T00:31:30;3.17;;;2.10;;
21927;SDS011;11128;51.096;17.190;2023-11-18T00:36:31;5.72;;;2.40;;
21927;SDS011;11128;51.096;17.190;2023-11-18T00:41:32;2.83;;;2.30;;
21927;SDS011;11128;51.096;17.190;2023-11-18T00:46:33;2.70;;;2.15;;
21927;SDS011;11128;51.096;17.190;2023-11-18T00:51:37;4.35;;;2.13;;
21927;SDS011;11128;51.096;17.190;2023-11-18T00:56:38;4.80;;;2.70;;
21927;SDS011;11128;51.096;17.190;2023-11-18T01:01:40;2.38;;;2.00;;
21927;SDS011;11128;51.096;17.190;2023-11-18T01:06:44;3.58;;;2.00;;
21927;SDS011;11128;51.096;17.190;2023-11-18T01:11:45;4.00;;;2.20;;
21927;SDS011;11128;51.096;17.190;2023-11-18T01:16:47;4.85;;;2.40;;
21927;SDS011;11128;51.096;17.190;2023-11-18T01:21:49;4.95;;;2.22;;
21927;SDS011;11128;51.096;17.190;2023-11-18T01:26:50;3.17;;;2.28;;
21927;SDS011;11128;51.096;17.190;2023-11-18T01:31:52;2.63;;;2.00;;
21927;SDS011;11128;51.096;17.190;2023-11-18T01:36:55;6.22;;;2.50;;
21927;SDS011;11128;51.096;17.190;2023-11-18T01:41:57;3.35;;;2.05;;
21927;SDS011;11128;51.096;17.190;2023-11-18T01:46:59;2.88;;;1.95;;
21927;SDS011;11128;51.096;17.190;2023-11-18T01:52:04;2.85;;;1.95;;
21927;SDS011;11128;51.096;17.190;2023-11-18T01:57:08;3.80;;;2.30;;
21927;SDS011;11128;51.096;17.190;2023-11-18T02:02:10;2.90;;;2.05;;
21927;SDS011;11128;51.096;17.190;2023-11-18T02:07:12;2.10;;;1.90;;
21927;SDS011;11128;51.096;17.190;2023-11-18T02:12:18;2.15;;;1.60;;
21927;SDS011;11128;51.096;17.190;2023-11-18T02:17:27;2.47;;;1.38;;
21927;SDS011;11128;51.096;17.190;2023-11-18T02:22:29;3.38;;;1.40;;
21927;SDS011;11128;51.096;17.190;2023-11-18T02:27:31;3.88;;;1.60;;
21927;SDS011;11128;51.096;17.190;2023-11-18T02:32:34;3.17;;;1.65;;
21927;SDS011;11128;51.096;17.190;2023-11-18T02:37:40;1.50;;;1.38;;
21927;SDS011;11128;51.096;17.190;2023-11-18T02:42:45;2.70;;;1.60;;
21927;SDS011;11128;51.096;17.190;2023-11-18T02:47:53;4.45;;;1.63;;
21927;SDS011;11128;51.096;17.190;2023-11-18T02:52:58;1.92;;;1.52;;
21927;SDS011;11128;51.096;17.190;2023-11-18T02:57:59;2.70;;;1.38;;
21927;SDS011;11128;51.096;17.190;2023-11-18T03:03:00;2.22;;;1.38;;
21927;SDS011;11128;51.096;17.190;2023-11-18T03:08:03;6.28;;;2.05;;
21927;SDS011;11128;51.096;17.190;2023-11-18T03:13:06;2.22;;;1.45;;
21927;SDS011;11128;51.096;17.190;2023-11-18T03:18:08;2.47;;;1.58;;
21927;SDS011;11128;51.096;17.190;2023-11-18T03:23:10;6.15;;;1.90;;
21927;SDS011;11128;51.096;17.190;2023-11-18T03:28:11;4.85;;;2.13;;
21927;SDS011;11128;51.096;17.190;2023-11-18T03:33:12;4.55;;;2.20;;
21927;SDS011;11128;51.096;17.190;2023-11-18T03:38:14;3.65;;;2.08;;
21927;SDS011;11128;51.096;17.190;2023-11-18T03:43:18;3.50;;;1.95;;
21927;SDS011;11128;51.096;17.190;2023-11-18T03:48:20;2.53;;;1.80;;
21927;SDS011;11128;51.096;17.190;2023-11-18T03:53:21;2.42;;;1.70;;
21927;SDS011;11128;51.096;17.190;2023-11-18T03:58:23;1.67;;;1.40;;
21927;SDS011;11128;51.096;17.190;2023-11-18T04:03:24;1.90;;;1.55;;
21927;SDS011;11128;51.096;17.190;2023-11-18T04:08:25;2.03;;;1.17;;
21927;SDS011;11128;51.096;17.190;2023-11-18T04:13:27;0.93;;;0.82;;
21927;SDS011;11128;51.096;17.190;2023-11-18T04:18:28;1.45;;;1.13;;
21927;SDS011;11128;51.096;17.190;2023-11-18T04:23:30;1.45;;;1.27;;
21927;SDS011;11128;51.096;17.190;2023-11-18T04:28:32;1.63;;;1.50;;
21927;SDS011;11128;51.096;17.190;2023-11-18T04:33:34;2.70;;;1.73;;
21927;SDS011;11128;51.096;17.190;2023-11-18T04:38:35;3.17;;;2.00;;
21927;SDS011;11128;51.096;17.190;2023-11-18T04:43:36;4.18;;;2.40;;
21927;SDS011;11128;51.096;17.190;2023-11-18T04:48:39;6.38;;;3.38;;
21927;SDS011;11128;51.096;17.190;2023-11-18T04:53:41;5.40;;;3.10;;
21927;SDS011;11128;51.096;17.190;2023-11-18T04:58:42;8.80;;;5.07;;
21927;SDS011;11128;51.096;17.190;2023-11-18T05:03:43;9.65;;;5.30;;
21927;SDS011;11128;51.096;17.190;2023-11-18T05:08:44;5.90;;;3.13;;
21927;SDS011;11128;51.096;17.190;2023-11-18T05:13:46;14.32;;;3.88;;
21927;SDS011;11128;51.096;17.190;2023-11-18T05:18:47;5.90;;;3.20;;
21927;SDS011;11128;51.096;17.190;2023-11-18T05:23:49;6.43;;;2.80;;
21927;SDS011;11128;51.096;17.190;2023-11-18T05:28:50;5.60;;;3.47;;
21927;SDS011;11128;51.096;17.190;2023-11-18T05:33:51;8.25;;;3.80;;
21927;SDS011;11128;51.096;17.190;2023-11-18T05:38:56;6.20;;;3.65;;
21927;SDS011;11128;51.096;17.190;2023-11-18T05:43:57;6.90;;;3.80;;
21927;SDS011;11128;51.096;17.190;2023-11-18T05:49:01;9.05;;;4.32;;
21927;SDS011;11128;51.096;17.190;2023-11-18T05:54:06;13.02;;;5.70;;
21927;SDS011;11128;51.096;17.190;2023-11-18T05:59:08;10.02;;;5.20;;
21927;SDS011;11128;51.096;17.190;2023-11-18T06:04:09;11.73;;;5.05;;
21927;SDS011;11128;51.096;17.190;2023-11-18T06:09:10;11.15;;;4.97;;
21927;SDS011;11128;51.096;17.190;2023-11-18T06:14:21;13.05;;;6.00;;
21927;SDS011;11128;51.096;17.190;2023-11-18T06:19:22;12.85;;;6.50;;
21927;SDS011;11128;51.096;17.190;2023-11-18T06:24:43;10.95;;;5.63;;
21927;SDS011;11128;51.096;17.190;2023-11-18T06:29:45;12.93;;;6.30;;
21927;SDS011;11128;51.096;17.190;2023-11-18T06:34:47;10.68;;;6.00;;
21927;SDS011;11128;51.096;17.190;2023-11-18T06:39:49;12.48;;;6.25;;
21927;SDS011;11128;51.096;17.190;2023-11-18T06:44:52;14.05;;;6.85;;
21927;SDS011;11128;51.096;17.190;2023-11-18T06:49:53;20.10;;;7.13;;
21927;SDS011;11128;51.096;17.190;2023-11-18T06:55:01;19.30;;;8.10;;
21927;SDS011;11128;51.096;17.190;2023-11-18T07:00:07;17.27;;;8.77;;
21927;SDS011;11128;51.096;17.190;2023-11-18T07:05:10;18.25;;;8.30;;
21927;SDS011;11128;51.096;17.190;2023-11-18T07:10:15;16.50;;;7.85;;
21927;SDS011;11128;51.096;17.190;2023-11-18T07:15:21;17.90;;;8.82;;
21927;SDS011;11128;51.096;17.190;2023-11-18T07:20:22;24.80;;;10.48;;
21927;SDS011;11128;51.096;17.190;2023-11-18T07:25:24;18.10;;;8.88;;
21927;SDS011;11128;51.096;17.190;2023-11-18T07:30:25;16.35;;;7.60;;
21927;SDS011;11128;51.096;17.190;2023-11-18T07:35:26;15.63;;;7.38;;
21927;SDS011;11128;51.096;17.190;2023-11-18T07:40:27;13.98;;;6.85;;
21927;SDS011;11128;51.096;17.190;2023-11-18T07:45:35;16.88;;;7.85;;
21927;SDS011;11128;51.096;17.190;2023-11-18T07:50:40;17.00;;;7.63;;
21927;SDS011;11128;51.096;17.190;2023-11-18T07:55:42;13.63;;;6.75;;
21927;SDS011;11128;51.096;17.190;2023-11-18T08:00:43;18.67;;;6.97;;
21927;SDS011;11128;51.096;17.190;2023-11-18T08:05:48;15.18;;;7.47;;
21927;SDS011;11128;51.096;17.190;2023-11-18T08:10:49;15.93;;;7.53;;
21927;SDS011;11128;51.096;17.190;2023-11-18T08:15:51;15.50;;;7.43;;
21927;SDS011;11128;51.096;17.190;2023-11-18T08:20:53;18.77;;;8.85;;
21927;SDS011;11128;51.096;17.190;2023-11-18T08:25:55;15.38;;;7.75;;
21927;SDS011;11128;51.096;17.190;2023-11-18T08:30:56;15.00;;;6.90;;
21927;SDS011;11128;51.096;17.190;2023-11-18T08:35:57;17.33;;;6.95;;
21927;SDS011;11128;51.096;17.190;2023-11-18T08:40:58;14.50;;;6.43;;
21927;SDS011;11128;51.096;17.190;2023-11-18T08:46:00;16.65;;;7.57;;
21927;SDS011;11128;51.096;17.190;2023-11-18T08:51:02;12.60;;;6.45;;
21927;SDS011;11128;51.096;17.190;2023-11-18T08:56:04;12.73;;;6.88;;
21927;SDS011;11128;51.096;17.190;2023-11-18T09:01:06;14.60;;;7.68;;
21927;SDS011;11128;51.096;17.190;2023-11-18T09:06:14;15.38;;;7.72;;
21927;SDS011;11128;51.096;17.190;2023-11-18T09:11:19;15.60;;;7.65;;
21927;SDS011;11128;51.096;17.190;2023-11-18T09:16:23;13.63;;;7.38;;
21927;SDS011;11128;51.096;17.190;2023-11-18T09:21:29;13.00;;;6.50;;
21927;SDS011;11128;51.096;17.190;2023-11-18T09:26:35;16.33;;;7.43;;
21927;SDS011;11128;51.096;17.190;2023-11-18T09:31:37;14.55;;;7.05;;
21927;SDS011;11128;51.096;17.190;2023-11-18T09:36:38;14.52;;;7.25;;
21927;SDS011;11128;51.096;17.190;2023-11-18T09:41:40;17.52;;;7.20;;
21927;SDS011;11128;51.096;17.190;2023-11-18T09:46:41;14.70;;;7.50;;
21927;SDS011;11128;51.096;17.190;2023-11-18T09:51:57;14.40;;;7.43;;
21927;SDS011;11128;51.096;17.190;2023-11-18T10:02:17;13.60;;;6.55;;
21927;SDS011;11128;51.096;17.190;2023-11-18T10:07:19;14.80;;;7.03;;
21927;SDS011;11128;51.096;17.190;2023-11-18T10:12:23;16.38;;;7.72;;
21927;SDS011;11128;51.096;17.190;2023-11-18T10:17:25;14.52;;;7.57;;
21927;SDS011;11128;51.096;17.190;2023-11-18T10:22:27;20.25;;;7.95;;
21927;SDS011;11128;51.096;17.190;2023-11-18T10:27:30;14.95;;;7.15;;
21927;SDS011;11128;51.096;17.190;2023-11-18T10:32:32;12.15;;;6.18;;
21927;SDS011;11128;51.096;17.190;2023-11-18T10:37:37;15.70;;;7.68;;
21927;SDS011;11128;51.096;17.190;2023-11-18T10:42:44;15.18;;;7.05;;
21927;SDS011;11128;51.096;17.190;2023-11-18T10:47:49;14.70;;;6.95;;
21927;SDS011;11128;51.096;17.190;2023-11-18T10:52:53;12.70;;;7.05;;
21927;SDS011;11128;51.096;17.190;2023-11-18T10:57:54;9.80;;;6.53;;
21927;SDS011;11128;51.096;17.190;2023-11-18T11:02:58;12.18;;;6.32;;
21927;SDS011;11128;51.096;17.190;2023-11-18T11:08:00;12.10;;;5.97;;
21927;SDS011;11128;51.096;17.190;2023-11-18T11:13:05;12.68;;;6.22;;
21927;SDS011;11128;51.096;17.190;2023-11-18T11:18:09;17.85;;;8.57;;
21927;SDS011;11128;51.096;17.190;2023-11-18T11:23:21;22.30;;;11.52;;
21927;SDS011;11128;51.096;17.190;2023-11-18T11:28:33;25.75;;;14.73;;
21927;SDS011;11128;51.096;17.190;2023-11-18T11:33:57;28.45;;;14.88;;
21927;SDS011;11128;51.096;17.190;2023-11-18T11:39:03;23.00;;;11.85;;
21927;SDS011;11128;51.096;17.190;2023-11-18T11:44:07;37.13;;;19.90;;
21927;SDS011;11128;51.096;17.190;2023-11-18T11:49:09;57.45;;;31.38;;
21927;SDS011;11128;51.096;17.190;2023-11-18T11:54:23;42.97;;;18.92;;
21927;SDS011;11128;51.096;17.190;2023-11-18T11:59:53;53.53;;;25.23;;
21927;SDS011;11128;51.096;17.190;2023-11-18T12:04:58;47.33;;;19.98;;
21927;SDS011;11128;51.096;17.190;2023-11-18T12:10:00;52.33;;;24.50;;
21927;SDS011;11128;51.096;17.190;2023-11-18T12:15:06;44.97;;;21.95;;
21927;SDS011;11128;51.096;17.190;2023-11-18T12:25:43;44.45;;;21.85;;
21927;SDS011;11128;51.096;17.190;2023-11-18T12:30:46;20.98;;;10.57;;
21927;SDS011;11128;51.096;17.190;2023-11-18T12:41:36;13.45;;;7.05;;
21927;SDS011;11128;51.096;17.190;2023-11-18T12:46:53;15.23;;;7.30;;
21927;SDS011;11128;51.096;17.190;2023-11-18T12:51:58;15.57;;;8.35;;
21927;SDS011;11128;51.096;17.190;2023-11-18T12:57:00;14.48;;;8.80;;
21927;SDS011;11128;51.096;17.190;2023-11-18T13:02:02;17.48;;;9.18;;
21927;SDS011;11128;51.096;17.190;2023-11-18T13:07:05;14.00;;;6.82;;
21927;SDS011;11128;51.096;17.190;2023-11-18T13:12:09;13.85;;;7.03;;
21927;SDS011;11128;51.096;17.190;2023-11-18T13:17:11;15.52;;;7.00;;
21927;SDS011;11128;51.096;17.190;2023-11-18T13:22:14;15.10;;;7.63;;
21927;SDS011;11128;51.096;17.190;2023-11-18T13:27:19;14.27;;;7.95;;
21927;SDS011;11128;51.096;17.190;2023-11-18T13:32:22;18.40;;;8.55;;
21927;SDS011;11128;51.096;17.190;2023-11-18T13:37:24;26.30;;;13.70;;
21927;SDS011;11128;51.096;17.190;2023-11-18T13:42:26;23.25;;;11.20;;
21927;SDS011;11128;51.096;17.190;2023-11-18T13:47:31;16.52;;;8.48;;
21927;SDS011;11128;51.096;17.190;2023-11-18T13:52:33;18.90;;;8.63;;
21927;SDS011;11128;51.096;17.190;2023-11-18T13:57:35;14.10;;;6.93;;
21927;SDS011;11128;51.096;17.190;2023-11-18T14:02:37;18.15;;;12.48;;
21927;SDS011;11128;51.096;17.190;2023-11-18T14:07:38;18.85;;;9.50;;
21927;SDS011;11128;51.096;17.190;2023-11-18T14:12:57;15.82;;;8.25;;
21927;SDS011;11128;51.096;17.190;2023-11-18T14:18:16;21.00;;;8.77;;
21927;SDS011;11128;51.096;17.190;2023-11-18T14:23:18;20.33;;;8.63;;
21927;SDS011;11128;51.096;17.190;2023-11-18T14:28:19;21.40;;;9.15;;
21927;SDS011;11128;51.096;17.190;2023-11-18T14:33:25;20.17;;;9.32;;
21927;SDS011;11128;51.096;17.190;2023-11-18T14:38:27;22.23;;;10.55;;
21927;SDS011;11128;51.096;17.190;2023-11-18T14:43:28;18.85;;;9.52;;
21927;SDS011;11128;51.096;17.190;2023-11-18T14:48:30;28.08;;;12.02;;
21927;SDS011;11128;51.096;17.190;2023-11-18T14:53:31;36.95;;;16.08;;
21927;SDS011;11128;51.096;17.190;2023-11-18T14:58:34;22.55;;;10.05;;
21927;SDS011;11128;51.096;17.190;2023-11-18T15:03:38;18.50;;;9.27;;
21927;SDS011;11128;51.096;17.190;2023-11-18T15:08:41;19.25;;;9.65;;
21927;SDS011;11128;51.096;17.190;2023-11-18T15:13:44;35.20;;;20.33;;
21927;SDS011;11128;51.096;17.190;2023-11-18T15:18:45;20.73;;;11.15;;
21927;SDS011;11128;51.096;17.190;2023-11-18T15:23:48;17.80;;;10.00;;
21927;SDS011;11128;51.096;17.190;2023-11-18T15:28:50;26.52;;;11.57;;
21927;SDS011;11128;51.096;17.190;2023-11-18T15:33:53;28.85;;;13.80;;
21927;SDS011;11128;51.096;17.190;2023-11-18T15:38:54;20.70;;;10.32;;
21927;SDS011;11128;51.096;17.190;2023-11-18T15:43:56;23.42;;;11.30;;
21927;SDS011;11128;51.096;17.190;2023-11-18T15:48:57;22.38;;;11.20;;
21927;SDS011;11128;51.096;17.190;2023-11-18T15:54:00;17.15;;;8.55;;
21927;SDS011;11128;51.096;17.190;2023-11-18T15:59:01;24.65;;;12.05;;
21927;SDS011;11128;51.096;17.190;2023-11-18T16:04:03;26.63;;;12.38;;
21927;SDS011;11128;51.096;17.190;2023-11-18T16:09:04;22.58;;;12.48;;
21927;SDS011;11128;51.096;17.190;2023-11-18T16:14:07;20.63;;;10.77;;
21927;SDS011;11128;51.096;17.190;2023-11-18T16:19:09;21.10;;;10.60;;
21927;SDS011;11128;51.096;17.190;2023-11-18T16:24:11;30.02;;;13.77;;
21927;SDS011;11128;51.096;17.190;2023-11-18T16:29:12;33.83;;;16.00;;
21927;SDS011;11128;51.096;17.190;2023-11-18T16:34:15;45.30;;;22.15;;
21927;SDS011;11128;51.096;17.190;2023-11-18T16:39:16;59.03;;;27.25;;
21927;SDS011;11128;51.096;17.190;2023-11-18T16:44:18;57.78;;;26.67;;
21927;SDS011;11128;51.096;17.190;2023-11-18T16:49:19;65.30;;;30.17;;
21927;SDS011;11128;51.096;17.190;2023-11-18T16:54:22;69.45;;;30.92;;
21927;SDS011;11128;51.096;17.190;2023-11-18T16:59:24;73.75;;;32.13;;
21927;SDS011;11128;51.096;17.190;2023-11-18T17:04:25;66.47;;;28.17;;
21927;SDS011;11128;51.096;17.190;2023-11-18T17:09:26;46.05;;;21.20;;
21927;SDS011;11128;51.096;17.190;2023-11-18T17:14:28;55.17;;;24.70;;
21927;SDS011;11128;51.096;17.190;2023-11-18T17:19:29;82.55;;;29.92;;
21927;SDS011;11128;51.096;17.190;2023-11-18T17:24:30;59.33;;;24.92;;
21927;SDS011;11128;51.096;17.190;2023-11-18T17:29:32;37.88;;;17.08;;
21927;SDS011;11128;51.096;17.190;2023-11-18T17:34:34;30.92;;;15.57;;
21927;SDS011;11128;51.096;17.190;2023-11-18T17:39:35;31.52;;;13.43;;
21927;SDS011;11128;51.096;17.190;2023-11-18T17:44:37;24.75;;;12.57;;
21927;SDS011;11128;51.096;17.190;2023-11-18T17:49:45;35.03;;;15.13;;
21927;SDS011;11128;51.096;17.190;2023-11-18T17:54:47;49.85;;;21.70;;
21927;SDS011;11128;51.096;17.190;2023-11-18T17:59:49;59.80;;;27.65;;
21927;SDS011;11128;51.096;17.190;2023-11-18T18:04:56;59.63;;;26.83;;
21927;SDS011;11128;51.096;17.190;2023-11-18T18:09:57;54.78;;;24.63;;
21927;SDS011;11128;51.096;17.190;2023-11-18T18:14:59;66.78;;;26.08;;
21927;SDS011;11128;51.096;17.190;2023-11-18T18:20:00;52.55;;;21.73;;
21927;SDS011;11128;51.096;17.190;2023-11-18T18:25:02;42.58;;;19.52;;
21927;SDS011;11128;51.096;17.190;2023-11-18T18:30:04;53.83;;;24.30;;
21927;SDS011;11128;51.096;17.190;2023-11-18T18:35:06;59.28;;;26.10;;
21927;SDS011;11128;51.096;17.190;2023-11-18T18:40:08;50.90;;;23.23;;
21927;SDS011;11128;51.096;17.190;2023-11-18T18:45:12;64.63;;;27.92;;
21927;SDS011;11128;51.096;17.190;2023-11-18T18:50:14;54.25;;;24.05;;
21927;SDS011;11128;51.096;17.190;2023-11-18T18:55:16;52.40;;;22.00;;
21927;SDS011;11128;51.096;17.190;2023-11-18T19:00:17;47.40;;;22.25;;
21927;SDS011;11128;51.096;17.190;2023-11-18T19:05:19;74.43;;;34.83;;
21927;SDS011;11128;51.096;17.190;2023-11-18T19:10:24;66.47;;;31.67;;
21927;SDS011;11128;51.096;17.190;2023-11-18T19:15:29;50.40;;;21.88;;
21927;SDS011;11128;51.096;17.190;2023-11-18T19:20:30;41.10;;;19.20;;
21927;SDS011;11128;51.096;17.190;2023-11-18T19:25:32;57.85;;;28.15;;
21927;SDS011;11128;51.096;17.190;2023-11-18T19:30:35;70.93;;;30.30;;
21927;SDS011;11128;51.096;17.190;2023-11-18T19:35:37;65.38;;;29.15;;
21927;SDS011;11128;51.096;17.190;2023-11-18T19:40:38;55.10;;;26.83;;
21927;SDS011;11128;51.096;17.190;2023-11-18T19:45:40;45.22;;;22.42;;
21927;SDS011;11128;51.096;17.190;2023-11-18T19:50:42;49.35;;;23.27;;
21927;SDS011;11128;51.096;17.190;2023-11-18T19:55:43;60.35;;;25.52;;
21927;SDS011;11128;51.096;17.190;2023-11-18T20:00:45;56.15;;;25.00;;
21927;SDS011;11128;51.096;17.190;2023-11-18T20:05:46;62.40;;;29.33;;
21927;SDS011;11128;51.096;17.190;2023-11-18T20:10:48;71.05;;;29.17;;
21927;SDS011;11128;51.096;17.190;2023-11-18T20:15:49;87.72;;;36.28;;
21927;SDS011;11128;51.096;17.190;2023-11-18T20:20:51;66.72;;;29.25;;
21927;SDS011;11128;51.096;17.190;2023-11-18T20:25:54;40.80;;;20.40;;
21927;SDS011;11128;51.096;17.190;2023-11-18T20:30:55;41.75;;;20.10;;
21927;SDS011;11128;51.096;17.190;2023-11-18T20:35:56;32.13;;;14.55;;
21927;SDS011;11128;51.096;17.190;2023-11-18T20:40:59;46.13;;;18.00;;
21927;SDS011;11128;51.096;17.190;2023-11-18T20:46:00;62.20;;;21.80;;
21927;SDS011;11128;51.096;17.190;2023-11-18T20:51:05;43.58;;;18.83;;
21927;SDS011;11128;51.096;17.190;2023-11-18T20:56:08;32.67;;;15.15;;
21927;SDS011;11128;51.096;17.190;2023-11-18T21:01:09;25.52;;;12.68;;
21927;SDS011;11128;51.096;17.190;2023-11-18T21:06:12;31.10;;;14.07;;
21927;SDS011;11128;51.096;17.190;2023-11-18T21:11:14;20.70;;;10.77;;
21927;SDS011;11128;51.096;17.190;2023-11-18T21:16:16;24.75;;;12.18;;
21927;SDS011;11128;51.096;17.190;2023-11-18T21:21:17;26.80;;;12.13;;
21927;SDS011;11128;51.096;17.190;2023-11-18T21:26:19;34.28;;;15.32;;
21927;SDS011;11128;51.096;17.190;2023-11-18T21:31:21;31.48;;;13.75;;
21927;SDS011;11128;51.096;17.190;2023-11-18T21:36:22;41.78;;;17.20;;
21927;SDS011;11128;51.096;17.190;2023-11-18T21:41:23;31.52;;;14.90;;
21927;SDS011;11128;51.096;17.190;2023-11-18T21:46:25;38.65;;;17.00;;
21927;SDS011;11128;51.096;17.190;2023-11-18T21:51:27;39.95;;;18.20;;
21927;SDS011;11128;51.096;17.190;2023-11-18T21:56:34;41.25;;;18.85;;
21927;SDS011;11128;51.096;17.190;2023-11-18T22:01:36;44.00;;;18.15;;
21927;SDS011;11128;51.096;17.190;2023-11-18T22:06:39;45.15;;;18.73;;
21927;SDS011;11128;51.096;17.190;2023-11-18T22:11:40;42.92;;;19.13;;
21927;SDS011;11128;51.096;17.190;2023-11-18T22:16:41;38.53;;;17.35;;
21927;SDS011;11128;51.096;17.190;2023-11-18T22:21:43;36.05;;;16.33;;
21927;SDS011;11128;51.096;17.190;2023-11-18T22:26:46;36.95;;;16.20;;
21927;SDS011;11128;51.096;17.190;2023-11-18T22:31:47;35.78;;;16.58;;
21927;SDS011;11128;51.096;17.190;2023-11-18T22:36:50;41.83;;;17.60;;
21927;SDS011;11128;51.096;17.190;2023-11-18T22:41:52;35.50;;;16.88;;
21927;SDS011;11128;51.096;17.190;2023-11-18T22:46:53;36.13;;;16.35;;
21927;SDS011;11128;51.096;17.190;2023-11-18T22:51:54;38.22;;;16.02;;
21927;SDS011;11128;51.096;17.190;2023-11-18T22:56:56;40.65;;;17.85;;
21927;SDS011;11128;51.096;17.190;2023-11-18T23:01:57;35.20;;;16.02;;
21927;SDS011;11128;51.096;17.190;2023-11-18T23:12:23;34.40;;;14.00;;
21927;SDS011;11128;51.096;17.190;2023-11-18T23:17:27;30.88;;;14.43;;
21927;SDS011;11128;51.096;17.190;2023-11-18T23:22:30;33.80;;;16.00;;
21927;SDS011;11128;51.096;17.190;2023-11-18T23:27:31;33.30;;;15.05;;
21927;SDS011;11128;51.096;17.190;2023-11-18T23:32:33;29.92;;;14.40;;
21927;SDS011;11128;51.096;17.190;2023-11-18T23:37:35;33.58;;;15.30;;
21927;SDS011;11128;51.096;17.190;2023-11-18T23:42:36;31.83;;;14.80;;
21927;SDS011;11128;51.096;17.190;2023-11-18T23:47:43;30.35;;;13.57;;
21927;SDS011;11128;51.096;17.190;2023-11-18T23:52:46;37.58;;;16.00;;
21927;SDS011;11128;51.096;17.190;2023-11-18T23:57:47;33.88;;;14.88;;
